sensor_id;sensor_type;location;lat;lon;timestamp;pressure;altitude;pressure_sealevel;temperature;humidity
69127;BME280;56688;50.234;19.292;2023-09-19T00:00:17;97873.13;;;16.34;82.71
69127;BME280;56688;50.234;19.292;2023-09-19T00:02:52;97868.30;;;16.35;82.81
69127;BME280;56688;50.234;19.292;2023-09-19T00:05:19;97863.92;;;16.38;82.85
69127;BME280;56688;50.234;19.292;2023-09-19T00:07:51;97862.17;;;16.40;82.77
69127;BME280;56688;50.234;19.292;2023-09-19T00:10:21;97858.77;;;16.42;83.04
69127;BME280;56688;50.234;19.292;2023-09-19T00:12:51;97856.23;;;16.47;82.94
69127;BME280;56688;50.234;19.292;2023-09-19T00:15:23;97854.60;;;16.53;83.10
69127;BME280;56688;50.234;19.292;2023-09-19T00:17:51;97853.34;;;16.57;82.89
69127;BME280;56688;50.234;19.292;2023-09-19T00:20:19;97857.13;;;16.61;82.69
69127;BME280;56688;50.234;19.292;2023-09-19T00:22:47;97850.39;;;16.64;82.51
69127;BME280;56688;50.234;19.292;2023-09-19T00:25:14;97849.52;;;16.67;82.64
69127;BME280;56688;50.234;19.292;2023-09-19T00:27:42;97846.27;;;16.69;82.72
69127;BME280;56688;50.234;19.292;2023-09-19T00:30:11;97845.49;;;16.73;82.66
69127;BME280;56688;50.234;19.292;2023-09-19T00:32:47;97842.20;;;16.79;82.63
69127;BME280;56688;50.234;19.292;2023-09-19T00:35:15;97838.59;;;16.82;82.61
69127;BME280;56688;50.234;19.292;2023-09-19T00:37:42;97836.52;;;16.87;82.48
69127;BME280;56688;50.234;19.292;2023-09-19T00:40:10;97827.83;;;16.91;82.42
69127;BME280;56688;50.234;19.292;2023-09-19T00:42:39;97829.90;;;16.93;82.31
69127;BME280;56688;50.234;19.292;2023-09-19T00:45:08;97827.25;;;16.95;82.46
69127;BME280;56688;50.234;19.292;2023-09-19T00:47:54;97825.61;;;16.97;82.37
69127;BME280;56688;50.234;19.292;2023-09-19T00:50:24;97824.56;;;17.00;82.40
69127;BME280;56688;50.234;19.292;2023-09-19T00:52:55;97820.52;;;17.03;82.43
69127;BME280;56688;50.234;19.292;2023-09-19T00:55:24;97819.27;;;17.06;82.47
69127;BME280;56688;50.234;19.292;2023-09-19T00:57:52;97818.11;;;17.09;82.23
69127;BME280;56688;50.234;19.292;2023-09-19T01:00:19;97813.79;;;17.11;82.21
69127;BME280;56688;50.234;19.292;2023-09-19T01:02:47;97813.71;;;17.13;82.01
69127;BME280;56688;50.234;19.292;2023-09-19T01:05:15;97811.10;;;17.16;81.96
69127;BME280;56688;50.234;19.292;2023-09-19T01:07:43;97806.75;;;17.21;81.96
69127;BME280;56688;50.234;19.292;2023-09-19T01:10:13;97807.31;;;17.26;82.03
69127;BME280;56688;50.234;19.292;2023-09-19T01:20:46;97801.60;;;17.42;81.04
69127;BME280;56688;50.234;19.292;2023-09-19T01:23:25;97794.60;;;17.43;80.94
69127;BME280;56688;50.234;19.292;2023-09-19T01:31:11;97783.14;;;17.59;81.02
69127;BME280;56688;50.234;19.292;2023-09-19T01:34:01;97788.51;;;17.68;80.76
69127;BME280;56688;50.234;19.292;2023-09-19T01:36:36;97778.03;;;17.77;80.14
69127;BME280;56688;50.234;19.292;2023-09-19T01:39:07;97769.73;;;17.84;79.59
69127;BME280;56688;50.234;19.292;2023-09-19T01:44:07;97771.41;;;17.93;79.57
69127;BME280;56688;50.234;19.292;2023-09-19T01:46:39;97770.20;;;17.95;79.16
69127;BME280;56688;50.234;19.292;2023-09-19T01:51:50;97773.71;;;18.04;78.99
69127;BME280;56688;50.234;19.292;2023-09-19T01:54:27;97770.02;;;18.09;78.66
69127;BME280;56688;50.234;19.292;2023-09-19T01:57:06;97768.13;;;18.14;77.96
69127;BME280;56688;50.234;19.292;2023-09-19T01:59:42;97769.35;;;18.23;77.23
69127;BME280;56688;50.234;19.292;2023-09-19T02:02:11;97766.40;;;18.30;77.05
69127;BME280;56688;50.234;19.292;2023-09-19T02:04:39;97770.83;;;18.36;76.67
69127;BME280;56688;50.234;19.292;2023-09-19T02:07:06;97769.73;;;18.40;76.46
69127;BME280;56688;50.234;19.292;2023-09-19T02:09:35;97775.61;;;18.43;76.07
69127;BME280;56688;50.234;19.292;2023-09-19T02:12:02;97775.27;;;18.47;75.91
69127;BME280;56688;50.234;19.292;2023-09-19T02:14:31;97773.09;;;18.51;75.74
69127;BME280;56688;50.234;19.292;2023-09-19T02:16:58;97771.46;;;18.58;75.41
69127;BME280;56688;50.234;19.292;2023-09-19T02:19:27;97773.84;;;18.63;75.44
69127;BME280;56688;50.234;19.292;2023-09-19T02:21:55;97774.45;;;18.69;75.35
69127;BME280;56688;50.234;19.292;2023-09-19T02:24:21;97773.14;;;18.73;75.28
69127;BME280;56688;50.234;19.292;2023-09-19T02:26:50;97774.73;;;18.76;75.23
69127;BME280;56688;50.234;19.292;2023-09-19T02:29:16;97767.81;;;18.77;75.46
69127;BME280;56688;50.234;19.292;2023-09-19T02:31:43;97768.17;;;18.82;75.61
69127;BME280;56688;50.234;19.292;2023-09-19T02:34:13;97765.71;;;18.85;75.49
69127;BME280;56688;50.234;19.292;2023-09-19T02:36:43;97767.04;;;18.88;75.44
69127;BME280;56688;50.234;19.292;2023-09-19T02:39:10;97767.21;;;18.90;75.62
69127;BME280;56688;50.234;19.292;2023-09-19T02:41:38;97770.90;;;18.93;75.68
69127;BME280;56688;50.234;19.292;2023-09-19T02:44:05;97767.05;;;18.92;75.70
69127;BME280;56688;50.234;19.292;2023-09-19T02:46:34;97762.37;;;18.95;76.03
69127;BME280;56688;50.234;19.292;2023-09-19T02:49:03;97763.68;;;18.98;75.99
69127;BME280;56688;50.234;19.292;2023-09-19T02:51:33;97763.48;;;19.00;76.07
69127;BME280;56688;50.234;19.292;2023-09-19T02:54:01;97756.05;;;19.03;75.95
69127;BME280;56688;50.234;19.292;2023-09-19T02:56:30;97753.51;;;19.06;75.84
69127;BME280;56688;50.234;19.292;2023-09-19T02:58:59;97751.13;;;19.08;75.74
69127;BME280;56688;50.234;19.292;2023-09-19T03:01:27;97751.29;;;19.07;75.94
69127;BME280;56688;50.234;19.292;2023-09-19T03:03:55;97748.27;;;19.07;75.71
69127;BME280;56688;50.234;19.292;2023-09-19T03:06:23;97750.92;;;19.09;76.15
69127;BME280;56688;50.234;19.292;2023-09-19T03:08:50;97749.09;;;19.09;76.40
69127;BME280;56688;50.234;19.292;2023-09-19T03:11:19;97751.31;;;19.10;76.50
69127;BME280;56688;50.234;19.292;2023-09-19T03:13:53;97743.53;;;19.11;76.87
69127;BME280;56688;50.234;19.292;2023-09-19T03:16:21;97749.08;;;19.08;77.28
69127;BME280;56688;50.234;19.292;2023-09-19T03:18:51;97748.54;;;19.00;77.55
69127;BME280;56688;50.234;19.292;2023-09-19T03:21:18;97744.52;;;18.96;77.95
69127;BME280;56688;50.234;19.292;2023-09-19T03:23:45;97744.96;;;18.92;78.57
69127;BME280;56688;50.234;19.292;2023-09-19T03:26:13;97745.39;;;18.89;79.02
69127;BME280;56688;50.234;19.292;2023-09-19T03:28:43;97749.30;;;18.84;79.18
69127;BME280;56688;50.234;19.292;2023-09-19T03:31:11;97754.48;;;18.81;79.59
69127;BME280;56688;50.234;19.292;2023-09-19T03:33:38;97752.95;;;18.79;80.00
69127;BME280;56688;50.234;19.292;2023-09-19T03:36:05;97750.69;;;18.74;80.94
69127;BME280;56688;50.234;19.292;2023-09-19T03:38:33;97748.90;;;18.73;82.03
69127;BME280;56688;50.234;19.292;2023-09-19T03:41:02;97750.12;;;18.70;83.30
69127;BME280;56688;50.234;19.292;2023-09-19T03:43:32;97749.52;;;18.65;84.37
69127;BME280;56688;50.234;19.292;2023-09-19T03:46:01;97749.73;;;18.58;85.14
69127;BME280;56688;50.234;19.292;2023-09-19T03:48:31;97749.94;;;18.53;86.06
69127;BME280;56688;50.234;19.292;2023-09-19T03:50:59;97750.22;;;18.47;86.94
69127;BME280;56688;50.234;19.292;2023-09-19T03:53:26;97746.75;;;18.42;87.76
69127;BME280;56688;50.234;19.292;2023-09-19T03:55:52;97743.36;;;18.38;88.30
69127;BME280;56688;50.234;19.292;2023-09-19T03:58:20;97737.52;;;18.34;88.77
69127;BME280;56688;50.234;19.292;2023-09-19T04:00:47;97742.92;;;18.34;89.27
69127;BME280;56688;50.234;19.292;2023-09-19T04:03:16;97746.70;;;18.33;89.62
69127;BME280;56688;50.234;19.292;2023-09-19T04:05:47;97746.42;;;18.34;89.97
69127;BME280;56688;50.234;19.292;2023-09-19T04:08:14;97742.92;;;18.37;90.51
69127;BME280;56688;50.234;19.292;2023-09-19T04:10:43;97741.77;;;18.41;90.74
69127;BME280;56688;50.234;19.292;2023-09-19T04:13:10;97736.77;;;18.45;91.13
69127;BME280;56688;50.234;19.292;2023-09-19T04:15:37;97733.41;;;18.50;91.15
69127;BME280;56688;50.234;19.292;2023-09-19T04:18:04;97735.79;;;18.55;90.97
69127;BME280;56688;50.234;19.292;2023-09-19T04:20:32;97737.72;;;18.60;90.91
69127;BME280;56688;50.234;19.292;2023-09-19T04:22:59;97738.95;;;18.65;90.81
69127;BME280;56688;50.234;19.292;2023-09-19T04:25:26;97739.94;;;18.70;90.82
69127;BME280;56688;50.234;19.292;2023-09-19T04:27:54;97739.98;;;18.74;90.63
69127;BME280;56688;50.234;19.292;2023-09-19T04:30:21;97739.11;;;18.74;90.39
69127;BME280;56688;50.234;19.292;2023-09-19T04:32:48;97737.54;;;18.74;90.46
69127;BME280;56688;50.234;19.292;2023-09-19T04:35:18;97739.81;;;18.74;90.54
69127;BME280;56688;50.234;19.292;2023-09-19T04:37:45;97736.79;;;18.75;90.67
69127;BME280;56688;50.234;19.292;2023-09-19T04:40:12;97740.42;;;18.77;90.53
69127;BME280;56688;50.234;19.292;2023-09-19T04:42:45;97738.80;;;18.78;90.28
69127;BME280;56688;50.234;19.292;2023-09-19T04:45:12;97736.70;;;18.78;90.27
69127;BME280;56688;50.234;19.292;2023-09-19T04:47:41;97738.35;;;18.80;90.29
69127;BME280;56688;50.234;19.292;2023-09-19T04:50:11;97736.84;;;18.81;90.22
69127;BME280;56688;50.234;19.292;2023-09-19T04:52:41;97736.08;;;18.82;90.26
69127;BME280;56688;50.234;19.292;2023-09-19T04:55:10;97736.45;;;18.82;90.16
69127;BME280;56688;50.234;19.292;2023-09-19T04:57:37;97735.64;;;18.80;90.33
69127;BME280;56688;50.234;19.292;2023-09-19T05:00:06;97738.25;;;18.77;90.48
69127;BME280;56688;50.234;19.292;2023-09-19T05:02:39;97738.92;;;18.72;90.57
69127;BME280;56688;50.234;19.292;2023-09-19T05:05:07;97736.20;;;18.69;90.89
69127;BME280;56688;50.234;19.292;2023-09-19T05:07:35;97738.02;;;18.67;91.11
69127;BME280;56688;50.234;19.292;2023-09-19T05:10:03;97737.94;;;18.65;91.43
69127;BME280;56688;50.234;19.292;2023-09-19T05:12:33;97737.20;;;18.63;91.64
69127;BME280;56688;50.234;19.292;2023-09-19T05:15:03;97737.55;;;18.59;92.02
69127;BME280;56688;50.234;19.292;2023-09-19T05:17:30;97740.91;;;18.60;92.13
69127;BME280;56688;50.234;19.292;2023-09-19T05:19:57;97741.46;;;18.61;92.66
69127;BME280;56688;50.234;19.292;2023-09-19T05:22:26;97741.11;;;18.65;92.76
69127;BME280;56688;50.234;19.292;2023-09-19T05:24:53;97740.36;;;18.68;92.93
69127;BME280;56688;50.234;19.292;2023-09-19T05:27:21;97739.70;;;18.72;93.16
69127;BME280;56688;50.234;19.292;2023-09-19T05:29:48;97740.73;;;18.76;93.19
69127;BME280;56688;50.234;19.292;2023-09-19T05:32:17;97745.69;;;18.79;93.20
69127;BME280;56688;50.234;19.292;2023-09-19T05:34:46;97750.70;;;18.82;93.17
69127;BME280;56688;50.234;19.292;2023-09-19T05:37:14;97754.48;;;18.82;92.91
69127;BME280;56688;50.234;19.292;2023-09-19T05:39:43;97760.61;;;18.83;93.16
69127;BME280;56688;50.234;19.292;2023-09-19T05:42:10;97758.70;;;18.81;93.28
69127;BME280;56688;50.234;19.292;2023-09-19T05:44:37;97757.52;;;18.82;93.41
69127;BME280;56688;50.234;19.292;2023-09-19T05:47:04;97760.11;;;18.81;93.54
69127;BME280;56688;50.234;19.292;2023-09-19T05:49:31;97765.09;;;18.83;93.63
69127;BME280;56688;50.234;19.292;2023-09-19T05:51:58;97764.13;;;18.85;93.81
69127;BME280;56688;50.234;19.292;2023-09-19T05:54:25;97765.21;;;18.84;93.76
69127;BME280;56688;50.234;19.292;2023-09-19T05:56:52;97767.58;;;18.82;93.83
69127;BME280;56688;50.234;19.292;2023-09-19T05:59:20;97768.71;;;18.81;93.93
69127;BME280;56688;50.234;19.292;2023-09-19T06:01:47;97770.73;;;18.83;94.03
69127;BME280;56688;50.234;19.292;2023-09-19T06:04:14;97769.75;;;18.82;94.10
69127;BME280;56688;50.234;19.292;2023-09-19T06:06:41;97774.02;;;18.83;94.15
69127;BME280;56688;50.234;19.292;2023-09-19T06:09:08;97775.07;;;18.85;94.23
69127;BME280;56688;50.234;19.292;2023-09-19T06:11:36;97779.96;;;18.86;94.29
69127;BME280;56688;50.234;19.292;2023-09-19T06:14:03;97780.77;;;18.85;93.96
69127;BME280;56688;50.234;19.292;2023-09-19T06:16:30;97782.59;;;18.86;93.99
69127;BME280;56688;50.234;19.292;2023-09-19T06:18:59;97781.54;;;18.87;94.07
69127;BME280;56688;50.234;19.292;2023-09-19T06:21:27;97782.03;;;18.88;94.02
69127;BME280;56688;50.234;19.292;2023-09-19T06:23:54;97781.27;;;18.88;93.88
69127;BME280;56688;50.234;19.292;2023-09-19T06:26:21;97784.96;;;18.89;93.86
69127;BME280;56688;50.234;19.292;2023-09-19T06:28:48;97790.00;;;18.90;93.83
69127;BME280;56688;50.234;19.292;2023-09-19T06:31:15;97788.46;;;18.94;93.96
69127;BME280;56688;50.234;19.292;2023-09-19T06:33:42;97788.33;;;18.98;93.81
69127;BME280;56688;50.234;19.292;2023-09-19T06:36:10;97795.59;;;19.01;93.49
69127;BME280;56688;50.234;19.292;2023-09-19T06:38:38;97798.20;;;19.01;93.07
69127;BME280;56688;50.234;19.292;2023-09-19T06:41:05;97806.41;;;19.06;93.08
69127;BME280;56688;50.234;19.292;2023-09-19T06:43:34;97808.46;;;19.11;92.60
69127;BME280;56688;50.234;19.292;2023-09-19T06:46:02;97815.27;;;19.17;92.33
69127;BME280;56688;50.234;19.292;2023-09-19T06:48:29;97817.53;;;19.24;91.93
69127;BME280;56688;50.234;19.292;2023-09-19T06:50:56;97822.43;;;19.27;91.01
69127;BME280;56688;50.234;19.292;2023-09-19T06:53:26;97826.34;;;19.28;90.66
69127;BME280;56688;50.234;19.292;2023-09-19T06:55:53;97831.38;;;19.31;90.18
69127;BME280;56688;50.234;19.292;2023-09-19T06:58:21;97834.79;;;19.30;89.91
69127;BME280;56688;50.234;19.292;2023-09-19T07:00:48;97843.63;;;19.29;89.24
69127;BME280;56688;50.234;19.292;2023-09-19T07:03:16;97846.70;;;19.27;88.94
69127;BME280;56688;50.234;19.292;2023-09-19T07:05:47;97844.89;;;19.19;88.30
69127;BME280;56688;50.234;19.292;2023-09-19T07:08:14;97853.65;;;19.09;88.25
69127;BME280;56688;50.234;19.292;2023-09-19T07:10:42;97855.60;;;19.02;88.46
69127;BME280;56688;50.234;19.292;2023-09-19T07:13:16;97861.86;;;19.00;88.88
69127;BME280;56688;50.234;19.292;2023-09-19T07:15:44;97867.82;;;19.01;89.16
69127;BME280;56688;50.234;19.292;2023-09-19T07:18:14;97871.59;;;19.04;89.34
69127;BME280;56688;50.234;19.292;2023-09-19T07:20:44;97878.70;;;19.07;89.36
69127;BME280;56688;50.234;19.292;2023-09-19T07:23:18;97885.02;;;19.11;89.27
69127;BME280;56688;50.234;19.292;2023-09-19T07:25:49;97894.84;;;19.13;89.00
69127;BME280;56688;50.234;19.292;2023-09-19T07:28:17;97903.72;;;19.13;88.70
69127;BME280;56688;50.234;19.292;2023-09-19T07:30:44;97909.20;;;19.14;88.56
69127;BME280;56688;50.234;19.292;2023-09-19T07:33:11;97914.05;;;19.12;88.07
69127;BME280;56688;50.234;19.292;2023-09-19T07:35:39;97922.23;;;19.08;88.20
69127;BME280;56688;50.234;19.292;2023-09-19T07:38:07;97930.52;;;19.05;88.35
69127;BME280;56688;50.234;19.292;2023-09-19T07:40:37;97935.55;;;18.99;88.59
69127;BME280;56688;50.234;19.292;2023-09-19T07:43:05;97938.58;;;18.93;88.95
69127;BME280;56688;50.234;19.292;2023-09-19T07:45:33;97946.34;;;18.90;89.06
69127;BME280;56688;50.234;19.292;2023-09-19T07:48:00;97956.05;;;18.86;89.39
69127;BME280;56688;50.234;19.292;2023-09-19T07:50:33;97959.75;;;18.85;89.69
69127;BME280;56688;50.234;19.292;2023-09-19T07:53:01;97962.03;;;18.85;89.92
69127;BME280;56688;50.234;19.292;2023-09-19T07:55:28;97967.27;;;18.87;90.06
69127;BME280;56688;50.234;19.292;2023-09-19T07:57:56;97967.99;;;18.91;90.23
69127;BME280;56688;50.234;19.292;2023-09-19T08:00:23;97970.33;;;18.93;90.17
69127;BME280;56688;50.234;19.292;2023-09-19T08:02:50;97974.54;;;18.95;90.32
69127;BME280;56688;50.234;19.292;2023-09-19T08:05:29;97977.11;;;18.98;90.43
69127;BME280;56688;50.234;19.292;2023-09-19T08:07:56;97980.58;;;18.98;90.27
69127;BME280;56688;50.234;19.292;2023-09-19T08:10:23;97986.92;;;18.94;90.32
69127;BME280;56688;50.234;19.292;2023-09-19T08:12:54;97990.20;;;18.92;90.35
69127;BME280;56688;50.234;19.292;2023-09-19T08:15:24;97994.39;;;18.87;90.59
69127;BME280;56688;50.234;19.292;2023-09-19T08:17:51;97998.34;;;18.83;90.71
69127;BME280;56688;50.234;19.292;2023-09-19T08:20:18;97999.40;;;18.81;91.06
69127;BME280;56688;50.234;19.292;2023-09-19T08:22:51;97999.73;;;18.81;91.39
69127;BME280;56688;50.234;19.292;2023-09-19T08:25:22;97999.69;;;18.83;91.59
69127;BME280;56688;50.234;19.292;2023-09-19T08:27:50;98008.08;;;18.84;91.56
69127;BME280;56688;50.234;19.292;2023-09-19T08:30:20;98010.47;;;18.85;91.60
69127;BME280;56688;50.234;19.292;2023-09-19T08:32:58;98015.98;;;18.86;91.89
69127;BME280;56688;50.234;19.292;2023-09-19T08:35:26;98020.48;;;18.87;91.95
69127;BME280;56688;50.234;19.292;2023-09-19T08:37:53;98021.20;;;18.88;92.02
69127;BME280;56688;50.234;19.292;2023-09-19T08:40:23;98026.13;;;18.89;92.14
69127;BME280;56688;50.234;19.292;2023-09-19T08:42:54;98032.00;;;18.93;92.06
69127;BME280;56688;50.234;19.292;2023-09-19T08:45:23;98029.78;;;18.93;91.96
69127;BME280;56688;50.234;19.292;2023-09-19T08:50:49;98031.02;;;19.00;92.03
69127;BME280;56688;50.234;19.292;2023-09-19T08:53:21;98030.95;;;19.04;91.65
69127;BME280;56688;50.234;19.292;2023-09-19T08:55:54;98030.73;;;19.04;91.41
69127;BME280;56688;50.234;19.292;2023-09-19T08:58:27;98031.29;;;19.06;91.20
69127;BME280;56688;50.234;19.292;2023-09-19T09:00:58;98032.05;;;19.06;90.88
69127;BME280;56688;50.234;19.292;2023-09-19T09:03:32;98035.81;;;19.03;90.58
69127;BME280;56688;50.234;19.292;2023-09-19T09:06:00;98037.48;;;19.02;91.02
69127;BME280;56688;50.234;19.292;2023-09-19T09:08:31;98035.77;;;19.05;91.07
69127;BME280;56688;50.234;19.292;2023-09-19T09:10:59;98038.98;;;19.06;91.10
69127;BME280;56688;50.234;19.292;2023-09-19T09:13:26;98044.27;;;19.05;91.19
69127;BME280;56688;50.234;19.292;2023-09-19T09:15:53;98043.20;;;19.07;91.30
69127;BME280;56688;50.234;19.292;2023-09-19T09:18:21;98044.73;;;19.08;91.22
69127;BME280;56688;50.234;19.292;2023-09-19T09:20:49;98050.58;;;19.08;90.93
69127;BME280;56688;50.234;19.292;2023-09-19T09:23:16;98053.56;;;19.03;90.51
69127;BME280;56688;50.234;19.292;2023-09-19T09:28:32;98054.36;;;18.97;90.52
69127;BME280;56688;50.234;19.292;2023-09-19T09:31:01;98059.83;;;18.92;90.66
69127;BME280;56688;50.234;19.292;2023-09-19T09:33:36;98063.16;;;18.90;90.47
69127;BME280;56688;50.234;19.292;2023-09-19T09:36:05;98064.46;;;18.86;90.39
69127;BME280;56688;50.234;19.292;2023-09-19T09:38:48;98065.14;;;18.84;90.40
69127;BME280;56688;50.234;19.292;2023-09-19T09:41:16;98065.23;;;18.83;90.48
69127;BME280;56688;50.234;19.292;2023-09-19T09:43:54;98071.50;;;18.86;90.66
69127;BME280;56688;50.234;19.292;2023-09-19T09:46:21;98066.35;;;18.90;90.89
69127;BME280;56688;50.234;19.292;2023-09-19T09:48:59;98068.19;;;18.94;90.83
69127;BME280;56688;50.234;19.292;2023-09-19T09:54:16;98059.70;;;19.03;90.83
69127;BME280;56688;50.234;19.292;2023-09-19T09:57:00;98066.20;;;19.08;90.66
69127;BME280;56688;50.234;19.292;2023-09-19T10:02:14;98065.88;;;19.19;90.19
69127;BME280;56688;50.234;19.292;2023-09-19T10:04:47;98070.54;;;19.24;90.24
69127;BME280;56688;50.234;19.292;2023-09-19T10:07:31;98074.35;;;19.26;89.29
69127;BME280;56688;50.234;19.292;2023-09-19T10:10:02;98077.45;;;19.25;89.39
69127;BME280;56688;50.234;19.292;2023-09-19T10:12:45;98078.97;;;19.28;89.38
69127;BME280;56688;50.234;19.292;2023-09-19T10:15:17;98077.15;;;19.25;88.33
69127;BME280;56688;50.234;19.292;2023-09-19T10:17:47;98078.27;;;19.24;88.87
69127;BME280;56688;50.234;19.292;2023-09-19T10:20:16;98083.95;;;19.26;89.37
69127;BME280;56688;50.234;19.292;2023-09-19T10:23:01;98081.67;;;19.28;89.43
69127;BME280;56688;50.234;19.292;2023-09-19T10:25:30;98083.73;;;19.28;89.14
69127;BME280;56688;50.234;19.292;2023-09-19T10:28:00;98084.81;;;19.26;88.86
69127;BME280;56688;50.234;19.292;2023-09-19T10:30:31;98084.86;;;19.25;88.98
69127;BME280;56688;50.234;19.292;2023-09-19T10:33:03;98090.07;;;19.26;89.17
69127;BME280;56688;50.234;19.292;2023-09-19T10:35:32;98090.34;;;19.26;88.75
69127;BME280;56688;50.234;19.292;2023-09-19T10:38:01;98091.93;;;19.24;88.71
69127;BME280;56688;50.234;19.292;2023-09-19T10:40:30;98093.19;;;19.21;88.64
69127;BME280;56688;50.234;19.292;2023-09-19T10:43:03;98096.84;;;19.17;89.05
69127;BME280;56688;50.234;19.292;2023-09-19T10:45:34;98100.43;;;19.15;89.16
69127;BME280;56688;50.234;19.292;2023-09-19T10:48:02;98099.55;;;19.15;89.47
69127;BME280;56688;50.234;19.292;2023-09-19T10:50:35;98106.33;;;19.13;89.32
69127;BME280;56688;50.234;19.292;2023-09-19T10:53:05;98108.84;;;19.10;89.53
69127;BME280;56688;50.234;19.292;2023-09-19T10:55:35;98115.38;;;19.10;89.82
69127;BME280;56688;50.234;19.292;2023-09-19T10:58:04;98118.39;;;19.09;89.61
69127;BME280;56688;50.234;19.292;2023-09-19T11:00:57;98119.98;;;19.05;89.57
69127;BME280;56688;50.234;19.292;2023-09-19T11:03:41;98125.75;;;18.99;89.96
69127;BME280;56688;50.234;19.292;2023-09-19T11:06:16;98126.50;;;18.98;90.27
69127;BME280;56688;50.234;19.292;2023-09-19T11:11:41;98128.23;;;18.98;90.66
69127;BME280;56688;50.234;19.292;2023-09-19T11:30:33;98126.59;;;19.24;90.04
69127;BME280;56688;50.234;19.292;2023-09-19T11:33:16;98132.39;;;19.24;90.07
69127;BME280;56688;50.234;19.292;2023-09-19T11:46:27;98135.77;;;19.25;89.64
69127;BME280;56688;50.234;19.292;2023-09-19T11:49:05;98139.96;;;19.27;89.50
69127;BME280;56688;50.234;19.292;2023-09-19T11:51:43;98145.14;;;19.31;89.06
69127;BME280;56688;50.234;19.292;2023-09-19T11:54:12;98146.61;;;19.35;88.42
69127;BME280;56688;50.234;19.292;2023-09-19T11:56:46;98147.44;;;19.41;87.26
69127;BME280;56688;50.234;19.292;2023-09-19T11:59:26;98146.50;;;19.45;86.43
69127;BME280;56688;50.234;19.292;2023-09-19T12:01:57;98147.02;;;19.49;85.83
69127;BME280;56688;50.234;19.292;2023-09-19T12:04:41;98149.27;;;19.51;85.19
69127;BME280;56688;50.234;19.292;2023-09-19T12:07:11;98148.94;;;19.58;85.83
69127;BME280;56688;50.234;19.292;2023-09-19T12:12:31;98155.70;;;19.72;85.01
69127;BME280;56688;50.234;19.292;2023-09-19T12:14:59;98154.70;;;19.64;84.12
69127;BME280;56688;50.234;19.292;2023-09-19T12:17:42;98154.39;;;19.57;84.44
69127;BME280;56688;50.234;19.292;2023-09-19T12:20:11;98163.55;;;19.61;85.48
69127;BME280;56688;50.234;19.292;2023-09-19T12:22:43;98161.78;;;19.67;85.34
69127;BME280;56688;50.234;19.292;2023-09-19T12:25:11;98162.60;;;19.69;85.16
69127;BME280;56688;50.234;19.292;2023-09-19T12:27:47;98167.27;;;19.78;86.08
69127;BME280;56688;50.234;19.292;2023-09-19T12:30:15;98165.09;;;19.87;85.90
69127;BME280;56688;50.234;19.292;2023-09-19T12:32:48;98165.75;;;19.89;85.27
69127;BME280;56688;50.234;19.292;2023-09-19T12:35:32;98165.12;;;19.91;85.41
69127;BME280;56688;50.234;19.292;2023-09-19T12:38:03;98164.82;;;20.00;85.76
69127;BME280;56688;50.234;19.292;2023-09-19T12:40:32;98161.09;;;20.01;84.51
69127;BME280;56688;50.234;19.292;2023-09-19T12:43:01;98165.12;;;19.97;84.06
69127;BME280;56688;50.234;19.292;2023-09-19T12:45:30;98170.84;;;19.94;84.08
69127;BME280;56688;50.234;19.292;2023-09-19T12:51:06;98169.07;;;19.86;84.65
69127;BME280;56688;50.234;19.292;2023-09-19T12:53:38;98169.92;;;19.85;84.60
69127;BME280;56688;50.234;19.292;2023-09-19T12:56:16;98173.98;;;19.84;84.69
69127;BME280;56688;50.234;19.292;2023-09-19T13:01:16;98174.34;;;19.80;84.34
69127;BME280;56688;50.234;19.292;2023-09-19T13:03:44;98175.31;;;19.81;84.83
69127;BME280;56688;50.234;19.292;2023-09-19T13:06:11;98172.69;;;19.85;85.03
69127;BME280;56688;50.234;19.292;2023-09-19T13:08:39;98174.38;;;19.91;84.71
69127;BME280;56688;50.234;19.292;2023-09-19T13:11:14;98175.64;;;19.98;84.82
69127;BME280;56688;50.234;19.292;2023-09-19T13:13:50;98173.51;;;20.07;84.87
69127;BME280;56688;50.234;19.292;2023-09-19T13:16:21;98170.38;;;20.21;84.84
69127;BME280;56688;50.234;19.292;2023-09-19T13:18:55;98166.88;;;20.38;84.63
69127;BME280;56688;50.234;19.292;2023-09-19T13:21:32;98169.91;;;20.48;83.44
69127;BME280;56688;50.234;19.292;2023-09-19T13:26:46;98170.52;;;20.65;83.24
69127;BME280;56688;50.234;19.292;2023-09-19T13:29:13;98169.23;;;20.75;82.63
69127;BME280;56688;50.234;19.292;2023-09-19T13:31:49;98166.83;;;20.92;81.67
69127;BME280;56688;50.234;19.292;2023-09-19T13:34:16;98166.85;;;21.08;80.83
69127;BME280;56688;50.234;19.292;2023-09-19T13:36:44;98168.40;;;21.22;79.37
69127;BME280;56688;50.234;19.292;2023-09-19T13:39:12;98166.10;;;21.28;78.32
69127;BME280;56688;50.234;19.292;2023-09-19T13:41:44;98166.73;;;21.34;78.37
69127;BME280;56688;50.234;19.292;2023-09-19T13:44:11;98166.43;;;21.40;78.18
69127;BME280;56688;50.234;19.292;2023-09-19T13:46:39;98165.86;;;21.47;77.64
69127;BME280;56688;50.234;19.292;2023-09-19T13:49:07;98166.90;;;21.51;76.94
69127;BME280;56688;50.234;19.292;2023-09-19T13:51:34;98171.65;;;21.57;77.33
69127;BME280;56688;50.234;19.292;2023-09-19T13:54:02;98170.95;;;21.57;76.30
69127;BME280;56688;50.234;19.292;2023-09-19T13:56:29;98177.34;;;21.54;76.97
69127;BME280;56688;50.234;19.292;2023-09-19T13:58:57;98176.58;;;21.52;77.21
69127;BME280;56688;50.234;19.292;2023-09-19T14:01:24;98175.23;;;21.56;77.75
69127;BME280;56688;50.234;19.292;2023-09-19T14:03:52;98174.66;;;21.63;76.66
69127;BME280;56688;50.234;19.292;2023-09-19T14:06:20;98171.56;;;21.87;76.09
69127;BME280;56688;50.234;19.292;2023-09-19T14:08:47;98163.94;;;22.46;74.66
69127;BME280;56688;50.234;19.292;2023-09-19T14:11:16;98165.52;;;23.14;71.92
69127;BME280;56688;50.234;19.292;2023-09-19T14:13:43;98171.40;;;23.68;69.73